Skipperville, Alabama
Current Conditions -  °F | °C
As of 7:53 PM on Saturday 22 Nov 2014 (Local Time) from KHEY Reporting Station
Light Rain Light Rain  
Wind Chill: 59°   Ceiling: 700
Heat Index: 59°   Visibility: 7mi
Dew Point: 57°   Wind: 10mph
Humidity: 93%   Direction: 80°E
Pressure: 30.14"   Gusts: NA
Location:  31.56°N, 85.55°W
Report Text: KHEY 230153Z AUTO 08009KT 7SM -RA OVC007 15/14 A3014 RMK AO2 RAB10 SLP194 P0000 T01500139
Loading
Personal Weather Stations






























Interactive Weather Map New forecast layout! Learn more

10-Day Weather Forecast

Advertisements
Track Severe Weather on mobile